Time;durP1;ratioP1;P1;durP2;ratioP2;P2;SDS_P1;SDS_P2;PMS_P1;PMS_P2;Temp;Humidity;BMP_temperature;BMP_pressure;BME280_temperature;BME280_humidity;BME280_pressure;Samples;Min_cycle;Max_cycle;Signal;HPM_P1;HPM_P2
2021/05/01 00:01:26;;;;;;;37.03;28.00;;;;;;;;;;5077858;28;20453;-56
2021/05/01 00:03:53;;;;;;;38.70;28.30;;;;;;;;;;5077925;28;20493;-59
2021/05/01 00:06:26;;;;;;;38.27;28.87;;;;;;;;;;5077829;28;20440;-53
2021/05/01 00:08:56;;;;;;;36.10;27.37;;;;;;;;;;5057902;28;20489;-54
2021/05/01 00:11:25;;;;;;;36.50;28.37;;;;;;;;;;5070811;28;20476;-56
2021/05/01 00:13:55;;;;;;;35.20;26.67;;;;;;;;;;5077483;28;20461;-49
2021/05/01 00:19:27;;;;;;;35.10;27.90;;;;;;;;;;5077647;28;20462;-53
2021/05/01 00:22:04;;;;;;;38.83;28.80;;;;;;;;;;5099589;28;20687;-54
2021/05/01 00:27:34;;;;;;;37.80;30.17;;;;;;;;;;5093317;28;20467;-51
2021/05/01 00:30:13;;;;;;;34.30;26.70;;;;;;;;;;5067927;28;20433;-57
2021/05/01 00:32:52;;;;;;;42.80;29.57;;;;;;;;;;5078221;28;20456;-56
2021/05/01 00:35:27;;;;;;;37.90;27.80;;;;;;;;;;5077575;28;20472;-56
2021/05/01 00:37:54;;;;;;;37.23;28.23;;;;;;;;;;5075965;28;20441;-49
2021/05/01 00:40:22;;;;;;;39.60;27.53;;;;;;;;;;5072828;28;20454;-53
2021/05/01 00:42:49;;;;;;;38.13;28.90;;;;;;;;;;5077587;28;20468;-53
2021/05/01 00:45:18;;;;;;;42.73;31.67;;;;;;;;;;5076929;28;20458;-53
2021/05/01 00:47:45;;;;;;;43.10;31.70;;;;;;;;;;5076292;28;20460;-58
2021/05/01 00:50:12;;;;;;;45.30;32.67;;;;;;;;;;5064454;28;20503;-52
2021/05/01 00:52:43;;;;;;;40.10;29.73;;;;;;;;;;5076524;28;20523;-56
2021/05/01 00:55:14;;;;;;;42.37;31.27;;;;;;;;;;5068751;28;20457;-50
2021/05/01 00:57:42;;;;;;;41.40;31.13;;;;;;;;;;5056363;28;20510;-50
2021/05/01 01:00:37;;;;;;;43.87;31.90;;;;;;;;;;5056743;28;20445;-47
2021/05/01 01:03:04;;;;;;;42.13;31.50;;;;;;;;;;5068739;28;20480;-49
2021/05/01 01:05:38;;;;;;;42.57;32.83;;;;;;;;;;5076770;28;20467;-52
2021/05/01 01:08:05;;;;;;;45.50;32.13;;;;;;;;;;5076768;28;20472;-57
2021/05/01 01:10:32;;;;;;;44.13;32.50;;;;;;;;;;5076317;28;20469;-50
2021/05/01 01:13:13;;;;;;;43.70;32.50;;;;;;;;;;5076147;28;20492;-57
2021/05/01 01:15:40;;;;;;;40.70;32.07;;;;;;;;;;5076644;28;20478;-52
2021/05/01 01:18:06;;;;;;;43.50;32.17;;;;;;;;;;5076321;28;20456;-52
2021/05/01 01:20:35;;;;;;;42.90;32.37;;;;;;;;;;5076493;28;20472;-53
2021/05/01 01:23:02;;;;;;;41.50;32.03;;;;;;;;;;5076211;28;20445;-54
2021/05/01 01:25:29;;;;;;;49.33;33.87;;;;;;;;;;5076349;28;20449;-55
2021/05/01 01:27:56;;;;;;;43.33;32.27;;;;;;;;;;5076204;28;20485;-55
2021/05/01 01:30:27;;;;;;;41.53;31.07;;;;;;;;;;5068075;28;20510;-53
2021/05/01 01:32:57;;;;;;;40.20;30.20;;;;;;;;;;5070903;28;20485;-52
2021/05/01 01:35:25;;;;;;;48.30;34.47;;;;;;;;;;5056064;28;20457;-53
2021/05/01 01:37:53;;;;;;;47.70;33.40;;;;;;;;;;5055880;28;20490;-50
2021/05/01 01:40:27;;;;;;;43.47;34.93;;;;;;;;;;5055753;28;20457;-57
2021/05/01 01:42:55;;;;;;;46.13;33.93;;;;;;;;;;5081516;28;20495;-50
2021/05/01 01:45:23;;;;;;;43.47;33.10;;;;;;;;;;5095789;28;20459;-56
2021/05/01 01:48:01;;;;;;;42.73;33.70;;;;;;;;;;5095773;28;20467;-56
2021/05/01 01:50:29;;;;;;;47.50;34.63;;;;;;;;;;5094669;28;20540;-52
2021/05/01 01:52:56;;;;;;;46.20;33.13;;;;;;;;;;5095187;28;20472;-54
2021/05/01 01:55:25;;;;;;;80.47;56.33;;;;;;;;;;5095146;28;20467;-55
2021/05/01 01:57:53;;;;;;;47.27;33.67;;;;;;;;;;5096314;28;20460;-54
2021/05/01 02:00:22;;;;;;;50.80;36.15;;;;;;;;;;5094690;28;20495;-53
2021/05/01 02:03:07;;;;;;;51.20;35.85;;;;;;;;;;5095896;28;20205;-53
2021/05/01 02:05:34;;;;;;;43.88;33.33;;;;;;;;;;5095775;28;20228;-51
2021/05/01 02:08:01;;;;;;;49.33;33.63;;;;;;;;;;5095916;28;20178;-55
2021/05/01 02:10:30;;;;;;;49.33;35.80;;;;;;;;;;5096022;28;20194;-60
2021/05/01 02:12:58;;;;;;;47.10;34.28;;;;;;;;;;5095712;28;20244;-53
2021/05/01 02:15:25;;;;;;;49.65;36.25;;;;;;;;;;5096975;28;20196;-55
2021/05/01 02:18:04;;;;;;;47.45;35.78;;;;;;;;;;5096571;28;20228;-51
2021/05/01 02:20:34;;;;;;;57.50;36.20;;;;;;;;;;5095902;28;20344;-48
2021/05/01 02:23:01;;;;;;;50.40;35.10;;;;;;;;;;5095359;28;20213;-58
2021/05/01 02:25:32;;;;;;;56.10;32.42;;;;;;;;;;5096230;28;20224;-54
2021/05/01 02:28:00;;;;;;;48.85;36.45;;;;;;;;;;5095910;28;20197;-56
2021/05/01 02:30:27;;;;;;;47.63;35.47;;;;;;;;;;5095643;28;20217;-54
2021/05/01 02:32:55;;;;;;;48.90;35.13;;;;;;;;;;5094878;28;20281;-55
2021/05/01 02:35:26;;;;;;;52.25;35.42;;;;;;;;;;5095624;28;20208;-50
2021/05/01 02:37:54;;;;;;;51.40;37.95;;;;;;;;;;5095636;28;20240;-54
2021/05/01 02:40:21;;;;;;;47.65;36.55;;;;;;;;;;5095694;28;20270;-57
2021/05/01 02:42:48;;;;;;;50.63;35.38;;;;;;;;;;5095232;28;20225;-57
2021/05/01 02:45:17;;;;;;;48.53;35.15;;;;;;;;;;5095248;28;20206;-56
2021/05/01 02:47:44;;;;;;;46.33;34.65;;;;;;;;;;5098458;28;20193;-56
2021/05/01 02:50:20;;;;;;;49.22;36.17;;;;;;;;;;5100223;28;20181;-54
2021/05/01 02:52:46;;;;;;;51.05;33.95;;;;;;;;;;5099232;28;20240;-53
2021/05/01 02:55:14;;;;;;;49.03;35.95;;;;;;;;;;5099265;28;20202;-53
2021/05/01 02:57:54;;;;;;;54.65;36.60;;;;;;;;;;5099325;28;20209;-50
2021/05/01 03:00:23;;;;;;;52.35;35.08;;;;;;;;;;5099349;28;20224;-56
2021/05/01 03:02:50;;;;;;;48.65;36.72;;;;;;;;;;5099549;28;20206;-51
2021/05/01 03:05:18;;;;;;;49.72;36.30;;;;;;;;;;5099770;28;20259;-54
2021/05/01 03:07:47;;;;;;;54.17;38.05;;;;;;;;;;5099282;28;20213;-57
2021/05/01 03:10:15;;;;;;;55.80;34.65;;;;;;;;;;5099881;28;20216;-54
2021/05/01 03:12:42;;;;;;;52.03;35.67;;;;;;;;;;5099430;28;20233;-53
2021/05/01 03:15:09;;;;;;;52.55;37.85;;;;;;;;;;5098856;28;20198;-53
2021/05/01 03:17:37;;;;;;;53.88;37.15;;;;;;;;;;5099157;28;20210;-55
2021/05/01 03:20:16;;;;;;;52.92;38.08;;;;;;;;;;5098919;28;20229;-54
2021/05/01 03:22:43;;;;;;;58.28;37.67;;;;;;;;;;5098721;28;20210;-52
2021/05/01 03:25:11;;;;;;;55.03;36.92;;;;;;;;;;5098831;28;20194;-53
2021/05/01 03:27:49;;;;;;;59.75;36.13;;;;;;;;;;5098434;28;20213;-56
2021/05/01 03:30:18;;;;;;;53.90;37.70;;;;;;;;;;5098086;28;20212;-59
2021/05/01 03:32:46;;;;;;;56.80;38.22;;;;;;;;;;5097782;28;20239;-52
2021/05/01 03:35:14;;;;;;;56.90;40.20;;;;;;;;;;5098457;28;20194;-56
2021/05/01 03:37:42;;;;;;;53.83;36.83;;;;;;;;;;5098399;28;20186;-54
2021/05/01 03:40:10;;;;;;;51.15;36.03;;;;;;;;;;5098104;28;20264;-49
2021/05/01 03:42:39;;;;;;;58.42;40.08;;;;;;;;;;5098038;28;20229;-48
2021/05/01 03:45:06;;;;;;;53.47;39.22;;;;;;;;;;5098678;28;20217;-56
2021/05/01 03:47:33;;;;;;;58.03;40.03;;;;;;;;;;5097754;28;20202;-55
2021/05/01 03:50:21;;;;;;;60.65;39.97;;;;;;;;;;5098463;28;20484;-53
2021/05/01 03:52:49;;;;;;;56.45;37.50;;;;;;;;;;5098289;28;20218;-56
2021/05/01 03:55:18;;;;;;;58.55;40.20;;;;;;;;;;5098203;28;20202;-57
2021/05/01 03:57:53;;;;;;;56.03;40.50;;;;;;;;;;5098106;28;20221;-54
2021/05/01 04:00:20;;;;;;;54.80;39.08;;;;;;;;;;5098178;28;20209;-50
2021/05/01 04:02:47;;;;;;;62.58;38.90;;;;;;;;;;5098067;28;20232;-53
2021/05/01 04:08:19;;;;;;;59.63;41.97;;;;;;;;;;5098840;28;20172;-54
2021/05/01 04:10:45;;;;;;;53.33;39.15;;;;;;;;;;5099129;28;20356;-52
2021/05/01 04:13:18;;;;;;;57.25;38.92;;;;;;;;;;5098452;28;20236;-51
2021/05/01 04:15:45;;;;;;;57.10;39.00;;;;;;;;;;5097894;28;20198;-57
2021/05/01 04:18:13;;;;;;;58.78;40.35;;;;;;;;;;5097666;28;20228;-58
2021/05/01 04:20:40;;;;;;;61.58;42.47;;;;;;;;;;5097300;28;20186;-50
2021/05/01 04:23:08;;;;;;;57.95;40.10;;;;;;;;;;5097882;28;20229;-51
2021/05/01 04:25:36;;;;;;;54.15;41.47;;;;;;;;;;5097792;28;20210;-54
2021/05/01 04:28:04;;;;;;;56.08;39.80;;;;;;;;;;5097793;28;20206;-55
2021/05/01 04:30:31;;;;;;;57.92;42.20;;;;;;;;;;5097412;28;20210;-52
2021/05/01 04:33:20;;;;;;;54.45;40.60;;;;;;;;;;5097563;28;20218;-53
2021/05/01 04:35:46;;;;;;;54.47;40.28;;;;;;;;;;5082294;28;20236;-52
2021/05/01 04:38:13;;;;;;;55.97;40.10;;;;;;;;;;5077200;28;20210;-54
2021/05/01 04:40:48;;;;;;;56.20;39.17;;;;;;;;;;5077498;28;20190;-51
2021/05/01 04:43:16;;;;;;;63.75;42.53;;;;;;;;;;5076916;28;20206;-55
2021/05/01 04:45:43;;;;;;;56.85;39.83;;;;;;;;;;5077333;28;20214;-55
2021/05/01 04:48:29;;;;;;;60.38;41.17;;;;;;;;;;5077006;28;20195;-59
2021/05/01 04:50:56;;;;;;;52.78;38.65;;;;;;;;;;5076884;28;20230;-58
2021/05/01 04:53:23;;;;;;;56.65;40.63;;;;;;;;;;5077274;28;20482;-50
2021/05/01 04:55:53;;;;;;;51.15;38.28;;;;;;;;;;5076794;28;20206;-54
2021/05/01 04:58:20;;;;;;;54.33;38.13;;;;;;;;;;5076845;28;20222;-58
2021/05/01 05:00:46;;;;;;;53.33;39.00;;;;;;;;;;5076959;28;20194;-59
2021/05/01 05:03:32;;;;;;;51.42;37.50;;;;;;;;;;5076888;28;20217;-54
2021/05/01 05:05:59;;;;;;;47.67;35.15;;;;;;;;;;5077197;28;20270;-58
2021/05/01 05:08:26;;;;;;;55.60;37.65;;;;;;;;;;5076999;28;20249;-54
2021/05/01 05:10:53;;;;;;;52.88;36.67;;;;;;;;;;5076145;28;20221;-49
2021/05/01 05:13:26;;;;;;;50.05;36.22;;;;;;;;;;5076345;28;20224;-58
2021/05/01 05:16:01;;;;;;;50.97;35.90;;;;;;;;;;5076665;28;20207;-52
2021/05/01 05:18:28;;;;;;;49.40;35.97;;;;;;;;;;5076186;28;20206;-53
2021/05/01 05:20:55;;;;;;;47.22;33.47;;;;;;;;;;5076694;28;20230;-48
2021/05/01 05:23:22;;;;;;;53.13;36.88;;;;;;;;;;5076092;28;20259;-54
2021/05/01 05:25:49;;;;;;;46.85;33.30;;;;;;;;;;5076880;28;20199;-52
2021/05/01 05:28:17;;;;;;;46.80;35.00;;;;;;;;;;5076247;28;20191;-51
2021/05/01 05:30:44;;;;;;;49.72;34.35;;;;;;;;;;5076436;28;20210;-62
2021/05/01 05:33:11;;;;;;;46.80;34.38;;;;;;;;;;5075447;28;20225;-54
2021/05/01 05:35:49;;;;;;;46.92;32.92;;;;;;;;;;5085731;28;20252;-55
2021/05/01 05:38:15;;;;;;;49.90;35.20;;;;;;;;;;5096034;28;20232;-52
2021/05/01 05:41:02;;;;;;;48.72;34.58;;;;;;;;;;5096238;28;20220;-53
2021/05/01 05:43:33;;;;;;;51.70;33.95;;;;;;;;;;5096176;28;20213;-53
2021/05/01 05:46:11;;;;;;;59.72;34.17;;;;;;;;;;5095691;28;20224;-58
2021/05/01 05:48:45;;;;;;;43.10;30.67;;;;;;;;;;5096346;28;20189;-58
2021/05/01 05:51:12;;;;;;;48.03;32.45;;;;;;;;;;5096461;28;20213;-53
2021/05/01 05:53:38;;;;;;;45.67;31.05;;;;;;;;;;5095928;28;20256;-56
2021/05/01 05:56:09;;;;;;;49.40;33.90;;;;;;;;;;5095065;28;20206;-58
2021/05/01 05:58:37;;;;;;;44.88;30.10;;;;;;;;;;5095598;28;20260;-54
2021/05/01 06:01:04;;;;;;;47.28;32.40;;;;;;;;;;5095805;28;20212;-51
2021/05/01 06:03:40;;;;;;;36.13;27.60;;;;;;;;;;5095937;28;20210;-54
2021/05/01 06:06:09;;;;;;;42.17;30.15;;;;;;;;;;5095397;28;20225;-57
2021/05/01 06:08:38;;;;;;;35.90;27.17;;;;;;;;;;5095840;28;20260;-55
2021/05/01 06:11:12;;;;;;;38.58;28.13;;;;;;;;;;5095673;28;20456;-54
2021/05/01 06:13:40;;;;;;;36.22;25.85;;;;;;;;;;5095346;28;20226;-50
2021/05/01 06:16:07;;;;;;;39.70;28.70;;;;;;;;;;5095621;28;20181;-50
2021/05/01 06:18:51;;;;;;;46.78;30.20;;;;;;;;;;5095449;28;20209;-57
2021/05/01 06:21:17;;;;;;;34.95;26.75;;;;;;;;;;5094616;28;20194;-61
2021/05/01 06:23:44;;;;;;;38.67;28.30;;;;;;;;;;5095385;28;20218;-52
2021/05/01 06:26:15;;;;;;;39.58;27.23;;;;;;;;;;5095335;28;20455;-54
2021/05/01 06:28:42;;;;;;;37.93;26.30;;;;;;;;;;5095110;28;20209;-53
2021/05/01 06:31:22;;;;;;;37.42;26.38;;;;;;;;;;5094878;28;20432;-58
2021/05/01 06:33:49;;;;;;;36.67;25.33;;;;;;;;;;5095337;28;20230;-51
2021/05/01 06:36:20;;;;;;;36.67;27.13;;;;;;;;;;5095069;28;20541;-54
2021/05/01 06:39:00;;;;;;;39.20;25.90;;;;;;;;;;5095329;28;20535;-54
2021/05/01 06:41:28;;;;;;;34.43;25.77;;;;;;;;;;5095624;28;20443;-51
2021/05/01 06:44:02;;;;;;;39.00;25.53;;;;;;;;;;5095711;28;20444;-59
2021/05/01 06:46:31;;;;;;;41.17;27.88;;;;;;;;;;5095866;28;20428;-56
2021/05/01 06:48:59;;;;;;;38.30;25.83;;;;;;;;;;5095534;28;20236;-55
2021/05/01 06:51:28;;;;;;;31.17;24.40;;;;;;;;;;5095108;28;20573;-55
2021/05/01 06:53:55;;;;;;;39.00;27.48;;;;;;;;;;5095190;28;20505;-52
2021/05/01 06:56:22;;;;;;;34.80;23.80;;;;;;;;;;5094306;28;20257;-51
2021/05/01 06:58:49;;;;;;;34.00;23.53;;;;;;;;;;5093953;28;20456;-51
2021/05/01 07:01:16;;;;;;;34.17;24.00;;;;;;;;;;5094096;28;20468;-59
2021/05/01 07:03:53;;;;;;;32.73;20.70;;;;;;;;;;5094318;28;20471;-52
2021/05/01 07:06:20;;;;;;;32.20;23.17;;;;;;;;;;5094396;28;20456;-56
2021/05/01 07:08:47;;;;;;;31.23;21.60;;;;;;;;;;5094283;28;20452;-56
2021/05/01 07:11:16;;;;;;;36.30;21.50;;;;;;;;;;5093971;28;20460;-53
2021/05/01 07:13:43;;;;;;;30.83;22.10;;;;;;;;;;5092746;28;20488;-55
2021/05/01 07:16:11;;;;;;;29.77;20.80;;;;;;;;;;5094348;28;20440;-54
2021/05/01 07:18:57;;;;;;;30.30;22.90;;;;;;;;;;5094309;28;20462;-54
2021/05/01 07:21:25;;;;;;;32.20;22.25;;;;;;;;;;5094573;28;20456;-56
2021/05/01 07:23:52;;;;;;;32.47;22.35;;;;;;;;;;5094331;28;20174;-58
2021/05/01 07:26:25;;;;;;;34.07;23.03;;;;;;;;;;5094386;28;20249;-57
2021/05/01 07:28:54;;;;;;;31.17;21.37;;;;;;;;;;5094202;28;20475;-53
2021/05/01 07:31:23;;;;;;;30.60;20.73;;;;;;;;;;5094113;28;20470;-55
2021/05/01 07:34:04;;;;;;;29.30;21.93;;;;;;;;;;5096649;28;20495;-58
2021/05/01 07:36:34;;;;;;;39.50;22.20;;;;;;;;;;5098513;28;20467;-57
2021/05/01 07:39:02;;;;;;;32.10;22.07;;;;;;;;;;5096878;28;20451;-56
2021/05/01 07:41:56;;;;;;;26.80;19.63;;;;;;;;;;5098474;28;20519;-50
2021/05/01 07:44:24;;;;;;;33.33;20.20;;;;;;;;;;5081113;28;20456;-55
2021/05/01 07:46:52;;;;;;;27.67;19.80;;;;;;;;;;5094304;28;20479;-50
2021/05/01 07:49:19;;;;;;;28.23;20.90;;;;;;;;;;5078022;28;20553;-52
2021/05/01 07:51:47;;;;;;;26.70;21.70;;;;;;;;;;5090979;28;20460;-57
2021/05/01 07:54:13;;;;;;;25.60;18.63;;;;;;;;;;5086363;28;20480;-59
2021/05/01 07:56:46;;;;;;;22.93;18.00;;;;;;;;;;5098137;28;20450;-56
2021/05/01 07:59:13;;;;;;;32.43;18.97;;;;;;;;;;5097788;28;20460;-58
2021/05/01 08:01:40;;;;;;;29.50;18.33;;;;;;;;;;5096799;28;20486;-49
2021/05/01 08:04:06;;;;;;;23.20;17.40;;;;;;;;;;5097490;28;20447;-60
2021/05/01 08:06:33;;;;;;;23.60;17.00;;;;;;;;;;5085261;28;20671;-54
2021/05/01 08:09:04;;;;;;;25.87;17.77;;;;;;;;;;5095217;28;20458;-52
2021/05/01 08:11:31;;;;;;;20.30;15.20;;;;;;;;;;5096707;28;20460;-56
2021/05/01 08:13:58;;;;;;;23.70;16.60;;;;;;;;;;5093921;28;20805;-55
2021/05/01 08:16:31;;;;;;;25.77;15.53;;;;;;;;;;5076986;28;20465;-53
2021/05/01 08:19:00;;;;;;;21.00;15.93;;;;;;;;;;5091979;28;20460;-49
2021/05/01 08:21:28;;;;;;;21.57;15.07;;;;;;;;;;5095883;28;20445;-56
2021/05/01 08:23:58;;;;;;;24.73;15.07;;;;;;;;;;5081540;28;20600;-50
2021/05/01 08:26:26;;;;;;;22.77;14.80;;;;;;;;;;5065874;28;20459;-51
2021/05/01 08:28:52;;;;;;;21.07;14.77;;;;;;;;;;5096805;28;20467;-51
2021/05/01 08:31:19;;;;;;;18.27;13.13;;;;;;;;;;5096421;28;20521;-57
2021/05/01 08:33:46;;;;;;;24.20;15.17;;;;;;;;;;5086836;28;20488;-56
2021/05/01 08:36:13;;;;;;;18.00;14.87;;;;;;;;;;5088396;28;20461;-53
2021/05/01 08:38:42;;;;;;;18.37;14.20;;;;;;;;;;5076392;28;20445;-51
2021/05/01 08:41:09;;;;;;;26.47;14.67;;;;;;;;;;5091472;28;20470;-54
2021/05/01 08:43:36;;;;;;;27.73;17.93;;;;;;;;;;5095554;28;20456;-59
2021/05/01 08:46:14;;;;;;;22.73;15.63;;;;;;;;;;5095047;28;20468;-53
2021/05/01 08:48:44;;;;;;;18.70;15.50;;;;;;;;;;5096053;28;20459;-57
2021/05/01 08:51:12;;;;;;;17.73;15.13;;;;;;;;;;5080304;28;20444;-54
2021/05/01 08:53:41;;;;;;;17.47;13.33;;;;;;;;;;5095188;28;20475;-51
2021/05/01 08:56:08;;;;;;;17.70;13.77;;;;;;;;;;5091856;28;20490;-58
2021/05/01 08:58:35;;;;;;;18.63;13.20;;;;;;;;;;5094978;28;20456;-54
2021/05/01 09:01:21;;;;;;;18.27;13.17;;;;;;;;;;5095206;28;20460;-53
2021/05/01 09:03:56;;;;;;;16.23;10.77;;;;;;;;;;5093449;28;20522;-62
2021/05/01 09:06:25;;;;;;;18.00;12.73;;;;;;;;;;5095303;28;20508;-59
2021/05/01 09:09:04;;;;;;;18.30;13.40;;;;;;;;;;5077941;28;20443;-53
2021/05/01 09:11:36;;;;;;;23.20;13.90;;;;;;;;;;5099636;28;20467;-59
2021/05/01 09:14:29;;;;;;;20.50;14.03;;;;;;;;;;5097928;28;20483;-56
2021/05/01 09:17:01;;;;;;;19.03;12.37;;;;;;;;;;5097161;28;20580;-58
2021/05/01 09:19:37;;;;;;;22.13;14.07;;;;;;;;;;5104091;28;20622;-59
2021/05/01 09:22:15;;;;;;;20.23;12.80;;;;;;;;;;5095898;28;20447;-55
2021/05/01 09:24:43;;;;;;;23.73;14.90;;;;;;;;;;5082900;28;20448;-56
2021/05/01 09:27:15;;;;;;;20.47;14.60;;;;;;;;;;5095312;28;20484;-59
2021/05/01 09:30:11;;;;;;;18.33;12.37;;;;;;;;;;5095145;28;20460;-58
2021/05/01 09:32:39;;;;;;;18.40;13.30;;;;;;;;;;5095202;28;20748;-52
2021/05/01 09:35:07;;;;;;;16.77;13.00;;;;;;;;;;5095188;28;20435;-58
2021/05/01 09:37:40;;;;;;;29.23;18.53;;;;;;;;;;5095831;28;20507;-53
2021/05/01 09:40:09;;;;;;;16.27;12.73;;;;;;;;;;5078584;28;20489;-50
2021/05/01 09:42:36;;;;;;;18.90;13.23;;;;;;;;;;5095502;28;20448;-60
2021/05/01 09:45:19;;;;;;;19.17;14.47;;;;;;;;;;5095337;28;20462;-57
2021/05/01 09:47:50;;;;;;;19.87;16.07;;;;;;;;;;5092337;28;20507;-54
2021/05/01 09:50:22;;;;;;;21.23;11.23;;;;;;;;;;5094136;28;20459;-52
2021/05/01 09:55:54;;;;;;;14.87;9.23;;;;;;;;;;5091946;28;20474;-56
2021/05/01 09:58:22;;;;;;;9.03;6.90;;;;;;;;;;5078152;28;20500;-57
2021/05/01 10:01:12;;;;;;;10.37;7.10;;;;;;;;;;5093844;28;20463;-56
2021/05/01 10:03:40;;;;;;;11.40;8.73;;;;;;;;;;5085115;28;20495;-53
2021/05/01 10:06:09;;;;;;;10.77;8.33;;;;;;;;;;5094750;28;20432;-54
2021/05/01 10:08:41;;;;;;;15.57;10.47;;;;;;;;;;5094010;28;20463;-55
2021/05/01 10:11:08;;;;;;;13.13;9.13;;;;;;;;;;5093846;28;20463;-57
2021/05/01 10:13:37;;;;;;;12.23;8.73;;;;;;;;;;5091475;28;20468;-54
2021/05/01 10:16:08;;;;;;;10.90;8.00;;;;;;;;;;5093072;28;20471;-53
2021/05/01 10:18:34;;;;;;;10.87;8.40;;;;;;;;;;5093041;28;20670;-54
2021/05/01 10:21:03;;;;;;;26.53;20.43;;;;;;;;;;5094323;28;20475;-59
2021/05/01 10:23:37;;;;;;;12.03;9.50;;;;;;;;;;5094000;28;20448;-55
2021/05/01 10:26:12;;;;;;;14.20;10.27;;;;;;;;;;5093766;28;20448;-59
2021/05/01 10:28:58;;;;;;;17.20;11.73;;;;;;;;;;5094035;28;20444;-55
2021/05/01 10:31:28;;;;;;;13.67;10.63;;;;;;;;;;5094821;28;20456;-54
2021/05/01 10:33:57;;;;;;;12.40;10.10;;;;;;;;;;5094561;28;20488;-52
2021/05/01 10:36:40;;;;;;;16.27;11.03;;;;;;;;;;5093584;28;20451;-56
2021/05/01 10:39:09;;;;;;;18.20;12.17;;;;;;;;;;5093142;28;20535;-58
2021/05/01 10:41:36;;;;;;;18.50;11.60;;;;;;;;;;5094299;28;20466;-54
2021/05/01 10:44:04;;;;;;;17.23;10.80;;;;;;;;;;5093874;28;20444;-50
2021/05/01 10:46:45;;;;;;;15.40;11.03;;;;;;;;;;5093527;28;20530;-57
2021/05/01 10:49:37;;;;;;;15.37;9.83;;;;;;;;;;5094668;28;20432;-54
2021/05/01 10:52:17;;;;;;;12.90;9.70;;;;;;;;;;5093516;28;20456;-54
2021/05/01 10:55:04;;;;;;;17.73;11.70;;;;;;;;;;5093369;28;20468;-52
2021/05/01 10:57:31;;;;;;;18.50;12.73;;;;;;;;;;5093919;28;20444;-57
2021/05/01 11:00:02;;;;;;;15.87;12.00;;;;;;;;;;5094024;28;20467;-56
2021/05/01 11:02:37;;;;;;;16.43;11.87;;;;;;;;;;5095087;28;20515;-53
2021/05/01 11:05:07;;;;;;;14.73;12.07;;;;;;;;;;5094344;28;20522;-57
2021/05/01 11:08:05;;;;;;;15.80;11.80;;;;;;;;;;5095372;28;20440;-45
2021/05/01 11:10:35;;;;;;;18.90;11.10;;;;;;;;;;5096219;28;20427;-58
2021/05/01 11:13:08;;;;;;;12.00;10.40;;;;;;;;;;5097115;28;20590;-58
2021/05/01 11:15:43;;;;;;;15.40;12.33;;;;;;;;;;5096047;28;20433;-56
2021/05/01 11:18:10;;;;;;;21.20;13.97;;;;;;;;;;5096546;28;20455;-58
2021/05/01 11:20:47;;;;;;;25.03;14.00;;;;;;;;;;5097335;28;20471;-51
2021/05/01 11:23:15;;;;;;;15.57;11.20;;;;;;;;;;5109365;28;20536;-59
2021/05/01 11:25:43;;;;;;;13.83;11.23;;;;;;;;;;5097834;28;20452;-53
2021/05/01 11:28:44;;;;;;;14.83;10.23;;;;;;;;;;5097128;28;20424;-56
2021/05/01 11:31:14;;;;;;;13.40;9.87;;;;;;;;;;5100744;28;20435;-54
2021/05/01 11:33:41;;;;;;;14.77;10.40;;;;;;;;;;5097719;28;20479;-58
2021/05/01 11:36:17;;;;;;;13.70;9.83;;;;;;;;;;5099895;28;20464;-58
2021/05/01 11:38:45;;;;;;;14.50;11.20;;;;;;;;;;5105363;28;20463;-56
2021/05/01 11:41:13;;;;;;;16.23;11.90;;;;;;;;;;5095950;28;20539;-53
2021/05/01 11:46:49;;;;;;;13.97;10.83;;;;;;;;;;5096618;28;20455;-55
2021/05/01 11:49:17;;;;;;;14.53;11.10;;;;;;;;;;5090917;28;20448;-54
2021/05/01 11:52:03;;;;;;;13.10;10.37;;;;;;;;;;5096178;28;20709;-61
2021/05/01 11:54:37;;;;;;;15.10;11.30;;;;;;;;;;5075786;28;20500;-58
2021/05/01 11:57:35;;;;;;;16.30;11.00;;;;;;;;;;5095828;28;20444;-58
2021/05/01 12:00:03;;;;;;;12.90;9.90;;;;;;;;;;5092747;28;20460;-53
2021/05/01 12:02:37;;;;;;;13.10;10.10;;;;;;;;;;5096166;28;20464;-59
2021/05/01 12:05:08;;;;;;;16.83;10.37;;;;;;;;;;5096106;28;20456;-61
2021/05/01 12:07:39;;;;;;;15.90;11.50;;;;;;;;;;5096581;28;20440;-58
2021/05/01 12:10:08;;;;;;;14.80;11.70;;;;;;;;;;5095891;28;20464;-55
2021/05/01 12:12:37;;;;;;;11.53;10.30;;;;;;;;;;5096204;28;20444;-55
2021/05/01 12:15:10;;;;;;;17.30;9.40;;;;;;;;;;5095450;28;20512;-55
2021/05/01 12:17:57;;;;;;;13.43;8.90;;;;;;;;;;5093215;28;20451;-60
2021/05/01 12:20:26;;;;;;;11.33;9.00;;;;;;;;;;5090555;28;20622;-55
2021/05/01 12:22:59;;;;;;;10.87;8.53;;;;;;;;;;5091904;28;20486;-52
2021/05/01 12:25:37;;;;;;;10.70;8.97;;;;;;;;;;5096919;28;20474;-58
2021/05/01 12:28:06;;;;;;;11.20;7.37;;;;;;;;;;5096625;28;20944;-54
2021/05/01 12:31:01;;;;;;;10.33;7.37;;;;;;;;;;5086296;28;20479;-58
2021/05/01 12:33:48;;;;;;;10.40;7.90;;;;;;;;;;5082287;28;20547;-59
2021/05/01 12:36:17;;;;;;;8.00;6.20;;;;;;;;;;5096677;28;20471;-52
2021/05/01 12:38:44;;;;;;;9.90;6.70;;;;;;;;;;5096733;28;20493;-55
2021/05/01 12:41:19;;;;;;;12.83;7.67;;;;;;;;;;5097099;28;20460;-54
2021/05/01 12:43:51;;;;;;;8.20;6.33;;;;;;;;;;5096502;28;20443;-52
2021/05/01 12:46:40;;;;;;;8.20;6.33;;;;;;;;;;5096051;28;20476;-55
2021/05/01 12:49:41;;;;;;;9.43;6.20;;;;;;;;;;5092571;28;20511;-52
2021/05/01 12:52:21;;;;;;;8.37;7.20;;;;;;;;;;5095536;28;20480;-58
2021/05/01 12:55:14;;;;;;;8.40;5.97;;;;;;;;;;5095563;28;20495;-52
2021/05/01 12:57:41;;;;;;;11.53;6.50;;;;;;;;;;5096676;28;20466;-56
2021/05/01 13:00:21;;;;;;;9.63;6.30;;;;;;;;;;5096482;28;20443;-53
2021/05/01 13:03:24;;;;;;;11.17;6.50;;;;;;;;;;5095562;28;20440;-57
2021/05/01 13:05:51;;;;;;;9.17;6.77;;;;;;;;;;5096431;28;20451;-55
2021/05/01 13:08:24;;;;;;;9.70;5.53;;;;;;;;;;5096380;28;20517;-48
2021/05/01 13:11:09;;;;;;;8.37;6.10;;;;;;;;;;5095727;28;20480;-51
2021/05/01 13:13:43;;;;;;;8.20;5.60;;;;;;;;;;5084085;28;20503;-50
2021/05/01 13:16:12;;;;;;;6.83;5.80;;;;;;;;;;5076026;28;20499;-54
2021/05/01 13:19:10;;;;;;;8.63;5.00;;;;;;;;;;5083348;28;20497;-59
2021/05/01 13:21:50;;;;;;;8.67;5.50;;;;;;;;;;5095389;28;20468;-57
2021/05/01 13:24:18;;;;;;;9.93;5.83;;;;;;;;;;5095726;28;20468;-58
2021/05/01 13:26:55;;;;;;;7.10;4.97;;;;;;;;;;5095867;28;20440;-52
2021/05/01 13:29:24;;;;;;;8.13;5.13;;;;;;;;;;5096245;28;20447;-51
2021/05/01 13:31:52;;;;;;;9.53;6.70;;;;;;;;;;5095522;28;20853;-55
2021/05/01 13:34:19;;;;;;;9.43;6.00;;;;;;;;;;5094990;28;20538;-60
2021/05/01 13:36:46;;;;;;;12.57;7.33;;;;;;;;;;5095177;28;20468;-59
2021/05/01 13:39:20;;;;;;;9.77;6.80;;;;;;;;;;5094921;28;20463;-54
2021/05/01 13:42:03;;;;;;;10.63;5.57;;;;;;;;;;5094883;28;20447;-58
2021/05/01 13:47:36;;;;;;;9.67;6.17;;;;;;;;;;5079855;28;20444;-56
2021/05/01 13:50:05;;;;;;;6.80;4.70;;;;;;;;;;5090586;28;20492;-56
2021/05/01 13:52:35;;;;;;;7.63;5.03;;;;;;;;;;5093120;28;20478;-53
2021/05/01 13:55:17;;;;;;;6.40;4.40;;;;;;;;;;5093682;28;20492;-57
2021/05/01 13:57:59;;;;;;;11.80;5.63;;;;;;;;;;5076368;28;20479;-54
2021/05/01 14:00:32;;;;;;;8.20;5.13;;;;;;;;;;5094579;28;20454;-57
2021/05/01 14:03:00;;;;;;;8.10;5.27;;;;;;;;;;5094716;28;20428;-51
2021/05/01 14:05:51;;;;;;;10.27;6.80;;;;;;;;;;5093551;28;20531;-60
2021/05/01 14:08:18;;;;;;;8.40;5.20;;;;;;;;;;5093759;28;20470;-55
2021/05/01 14:10:47;;;;;;;10.60;5.93;;;;;;;;;;5093684;28;20456;-53
2021/05/01 14:13:26;;;;;;;10.60;6.10;;;;;;;;;;5093716;28;20483;-54
2021/05/01 14:15:53;;;;;;;9.40;5.13;;;;;;;;;;5086302;28;20479;-58
2021/05/01 14:18:21;;;;;;;6.77;4.17;;;;;;;;;;5083316;28;20464;-54
2021/05/01 14:20:52;;;;;;;9.50;4.90;;;;;;;;;;5104412;28;20451;-55
2021/05/01 14:23:27;;;;;;;8.50;5.73;;;;;;;;;;5099076;28;20458;-57
2021/05/01 14:25:55;;;;;;;16.50;5.00;;;;;;;;;;5094336;28;20452;-59
2021/05/01 14:28:29;;;;;;;7.13;5.27;;;;;;;;;;5107752;28;20455;-56
2021/05/01 14:31:14;;;;;;;10.70;5.93;;;;;;;;;;5096057;28;20470;-57
2021/05/01 14:33:54;;;;;;;6.53;5.27;;;;;;;;;;5092799;28;20488;-57
2021/05/01 14:36:21;;;;;;;9.20;6.00;;;;;;;;;;5105368;28;20452;-59
2021/05/01 14:38:50;;;;;;;8.27;6.30;;;;;;;;;;5100027;28;20467;-56
2021/05/01 14:41:18;;;;;;;6.23;5.03;;;;;;;;;;5088165;28;20469;-56
2021/05/01 14:43:47;;;;;;;13.10;6.20;;;;;;;;;;5082214;28;20440;-57
2021/05/01 14:46:21;;;;;;;11.60;5.40;;;;;;;;;;5095095;28;20455;-60
2021/05/01 14:49:08;;;;;;;9.93;5.40;;;;;;;;;;5110781;28;20531;-57
2021/05/01 14:51:35;;;;;;;7.47;5.30;;;;;;;;;;5113387;28;20470;-56
2021/05/01 14:54:13;;;;;;;10.50;5.20;;;;;;;;;;5114272;28;20471;-49
2021/05/01 14:59:45;;;;;;;8.57;4.70;;;;;;;;;;5093159;28;20479;-55
2021/05/01 15:02:20;;;;;;;9.57;4.57;;;;;;;;;;5094737;28;20456;-51
2021/05/01 15:04:58;;;;;;;7.90;5.17;;;;;;;;;;5092470;28;20507;-58
2021/05/01 15:07:25;;;;;;;5.80;4.53;;;;;;;;;;5102837;28;20603;-54
2021/05/01 15:09:53;;;;;;;12.60;5.30;;;;;;;;;;5085079;28;20464;-57